MMCU/CUU METAR and TAF weather

Enter ICAO airport designator
Station Type Date Time Source
MMCU METAR 2019/04/22 15:42 UTC NOAA

MMCU 221542Z 20004KT 10SM OVC080 18/M01 A3010 RMK 8/07/


Station Type Date Time Source
MMCU Decoded METAR 2019/04/22 15:42 UTC NOAA

Chihuahua International Airport, Mexico (MMCU) 28-42N 105-58W
Apr 22, 2019 - 11:42 AM EDT / 2019.04.22 1542 UTC
Wind: from the SSW (200 degrees) at 5 MPH (4 KT):0
Visibility: 10 mile(s):0
Sky conditions: overcast
Temperature: 64 F (18 C)
Dew Point: 30 F (-1 C)
Relative Humidity: 27%
Pressure (altimeter): 30.1 in. Hg (1019 hPa)
ob: MMCU 221542Z 20004KT 10SM OVC080 18/M01 A3010 RMK 8/07/
cycle: 15

Station Type Date Time Source
MMCU TAF 2019/04/22 06:52 UTC NOAA

TAF MMCU 220445Z 2206/2306 19007KT P6SM BKN080
FM221800 34010KT P6SM BKN090 BKN200
BECMG 2303/2305 33012KT

Example: see airport list